Time;durP1;ratioP1;P1;durP2;ratioP2;P2;SDS_P1;SDS_P2;PMS_P1;PMS_P2;Temp;Humidity;BMP_temperature;BMP_pressure;BME280_temperature;BME280_humidity;BME280_pressure;Samples;Min_cycle;Max_cycle;Signal;HPM_P1;HPM_P2
2024/01/17 00:00:33;;;;;;;5.97;3.38;;;;;;;2.76;100.00;100192.47;10253388;28;20521;-73
2024/01/17 00:05:34;;;;;;;4.53;2.38;;;;;;;3.35;100.00;100247.19;10252715;28;20051;-74
2024/01/17 00:10:35;;;;;;;4.20;1.58;;;;;;;3.51;100.00;100252.88;10252852;29;20046;-74
2024/01/17 00:15:35;;;;;;;2.55;1.65;;;;;;;3.64;100.00;100285.06;10251377;28;20047;-72
2024/01/17 00:20:36;;;;;;;3.90;1.60;;;;;;;3.63;100.00;100282.56;10252192;29;20573;-72
2024/01/17 00:25:37;;;;;;;2.95;1.75;;;;;;;3.57;100.00;100325.09;10252389;29;20111;-73
2024/01/17 00:30:38;;;;;;;2.83;2.03;;;;;;;3.46;100.00;100327.75;10252240;29;20066;-74
2024/01/17 00:35:39;;;;;;;2.90;2.05;;;;;;;3.32;100.00;100323.59;10251596;29;20122;-75
2024/01/17 00:40:40;;;;;;;3.60;2.53;;;;;;;3.09;100.00;100341.16;10251485;29;20043;-74
2024/01/17 00:45:40;;;;;;;3.95;2.28;;;;;;;2.65;100.00;100300.84;10252267;28;20467;-74
2024/01/17 00:50:41;;;;;;;4.60;2.50;;;;;;;2.80;100.00;100348.66;10252225;29;20050;-75
2024/01/17 00:55:42;;;;;;;4.82;3.15;;;;;;;2.69;100.00;100368.69;10251702;29;20524;-75
2024/01/17 01:00:43;;;;;;;4.68;2.97;;;;;;;2.56;100.00;100388.09;10251697;29;20087;-75
2024/01/17 01:05:46;;;;;;;4.47;2.85;;;;;;;2.43;100.00;100378.53;10251922;29;20043;-73
2024/01/17 01:10:46;;;;;;;5.40;3.20;;;;;;;2.48;100.00;100391.28;10251408;29;20444;-74
2024/01/17 01:15:47;;;;;;;4.18;3.20;;;;;;;2.46;100.00;100414.16;10251964;29;20039;-75
2024/01/17 01:20:48;;;;;;;4.90;3.33;;;;;;;2.17;100.00;100377.84;10250714;29;20045;-75
2024/01/17 01:25:49;;;;;;;5.75;3.70;;;;;;;2.30;100.00;100419.69;10255126;28;20057;-74
2024/01/17 01:30:49;;;;;;;4.25;3.13;;;;;;;2.16;100.00;100420.72;10258404;29;20122;-75
2024/01/17 01:35:50;;;;;;;4.47;3.45;;;;;;;2.06;100.00;100435.41;10258915;29;20039;-75
2024/01/17 01:40:51;;;;;;;3.97;2.97;;;;;;;1.87;100.00;100428.06;10251581;29;20035;-75
2024/01/17 01:46:04;;;;;;;4.45;3.30;;;;;;;1.87;100.00;100441.16;10258645;28;20055;-75
2024/01/17 01:51:04;;;;;;;5.05;3.35;;;;;;;1.54;100.00;100412.97;10257727;28;20130;-74
2024/01/17 01:56:07;;;;;;;5.25;3.33;;;;;;;1.65;100.00;100472.44;10257445;29;20122;-77
2024/01/17 02:01:08;;;;;;;5.38;3.90;;;;;;;1.61;100.00;100490.13;10256768;29;20035;-77
2024/01/17 02:06:12;;;;;;;5.05;3.60;;;;;;;1.52;100.00;100488.16;10258165;28;20514;-75
2024/01/17 02:11:13;;;;;;;5.68;4.10;;;;;;;1.42;100.00;100497.59;10256966;28;20050;-76
2024/01/17 02:16:15;;;;;;;5.43;3.70;;;;;;;1.40;100.00;100515.19;10256618;28;20543;-76
2024/01/17 02:21:16;;;;;;;5.38;3.58;;;;;;;1.35;100.00;100524.19;10257042;28;20046;-75
2024/01/17 02:26:17;;;;;;;7.40;4.20;;;;;;;1.30;100.00;100544.59;10256777;28;20058;-76
2024/01/17 02:31:17;;;;;;;5.68;3.85;;;;;;;1.26;100.00;100555.41;10256725;29;20130;-74
2024/01/17 02:36:18;;;;;;;5.85;3.88;;;;;;;1.09;100.00;100548.66;10255060;28;20154;-75
2024/01/17 02:41:19;;;;;;;6.25;4.25;;;;;;;1.07;100.00;100558.38;10255851;29;20147;-76
2024/01/17 02:46:24;;;;;;;7.05;4.60;;;;;;;1.28;100.00;100606.66;10256358;29;20051;-76
2024/01/17 02:51:25;;;;;;;6.70;4.43;;;;;;;0.74;100.00;100533.50;10255376;28;20114;-76
2024/01/17 02:56:28;;;;;;;5.80;3.65;;;;;;;1.08;100.00;100610.63;10253959;28;20081;-76
2024/01/17 03:01:28;;;;;;;6.38;4.03;;;;;;;1.14;100.00;100646.03;10254994;28;20538;-75
2024/01/17 03:06:29;;;;;;;7.25;4.93;;;;;;;1.07;100.00;100647.34;10255844;29;20098;-75
2024/01/17 03:11:30;;;;;;;6.82;4.82;;;;;;;0.59;100.00;100595.47;10254657;29;20054;-76
2024/01/17 03:16:31;;;;;;;7.10;4.55;;;;;;;1.02;100.00;100702.59;10254426;29;20118;-75
2024/01/17 03:21:32;;;;;;;10.45;4.53;;;;;;;1.01;100.00;100718.38;10254030;29;20477;-76
2024/01/17 03:26:33;;;;;;;8.23;4.75;;;;;;;1.05;100.00;100735.56;10251163;29;20102;-75
2024/01/17 03:31:33;;;;;;;6.82;4.35;;;;;;;1.06;100.00;100742.47;10253896;28;20102;-76
2024/01/17 03:36:34;;;;;;;8.95;4.97;;;;;;;0.80;100.00;100704.88;10254120;28;20080;-76
2024/01/17 03:41:35;;;;;;;6.30;4.50;;;;;;;1.05;100.00;100754.72;10253564;28;20048;-76
2024/01/17 03:46:35;;;;;;;6.30;3.97;;;;;;;1.06;100.00;100759.00;10253219;28;20504;-75
2024/01/17 03:51:36;;;;;;;6.60;4.57;;;;;;;1.06;100.00;100773.88;10253887;29;20043;-75
2024/01/17 03:56:37;;;;;;;6.43;4.45;;;;;;;1.05;100.00;100777.44;10252797;29;20522;-75
2024/01/17 04:01:42;;;;;;;7.05;4.50;;;;;;;1.06;100.00;100795.63;10251634;29;20047;-75
2024/01/17 04:06:43;;;;;;;16.33;5.00;;;;;;;1.06;100.00;100815.72;10253064;28;20126;-75
2024/01/17 04:11:45;;;;;;;6.53;4.00;;;;;;;0.99;100.00;100815.28;10250769;29;20130;-75
2024/01/17 04:16:46;;;;;;;6.63;4.28;;;;;;;0.82;100.00;100803.22;10252790;28;20050;-76
2024/01/17 04:21:46;;;;;;;9.05;4.65;;;;;;;0.82;100.00;100824.16;10251972;28;20050;-77
2024/01/17 04:26:47;;;;;;;6.80;4.18;;;;;;;0.82;100.00;100846.84;10252145;29;20503;-76
2024/01/17 04:31:48;;;;;;;8.23;4.40;;;;;;;0.80;100.00;100870.47;10251202;29;20035;-75
2024/01/17 04:36:49;;;;;;;7.93;4.40;;;;;;;0.80;100.00;100877.47;10251708;29;20135;-76
2024/01/17 04:41:50;;;;;;;19.00;4.82;;;;;;;0.72;100.00;100885.81;10241245;29;20143;-75
2024/01/17 04:46:51;;;;;;;9.98;4.15;;;;;;;0.64;100.00;100901.09;10212524;29;20085;-76
2024/01/17 04:51:54;;;;;;;6.70;4.15;;;;;;;0.66;100.00;100905.31;10211848;29;20074;-83
2024/01/17 04:56:55;;;;;;;15.68;5.57;;;;;;;0.73;100.00;100908.41;10212661;29;20075;-76
2024/01/17 05:01:56;;;;;;;11.82;5.18;;;;;;;0.38;100.00;100877.31;10211423;29;20513;-76
2024/01/17 05:06:57;;;;;;;8.45;4.70;;;;;;;0.65;100.00;100936.75;10212075;29;20048;-76
2024/01/17 05:11:57;;;;;;;7.68;4.95;;;;;;;0.59;100.00;100942.34;10211833;29;20043;-76
2024/01/17 05:16:58;;;;;;;10.10;6.68;;;;;;;0.66;100.00;100935.84;10212111;29;20535;-76
2024/01/17 05:21:59;;;;;;;8.07;5.30;;;;;;;0.63;100.00;100884.56;10211676;29;20044;-75
2024/01/17 05:27:00;;;;;;;8.82;4.07;;;;;;;0.98;100.00;100904.31;10211556;29;20465;-76
2024/01/17 05:32:00;;;;;;;6.53;3.40;;;;;;;1.55;100.00;100970.56;10210905;29;20134;-75
2024/01/17 05:37:03;;;;;;;7.13;3.30;;;;;;;1.68;100.00;100961.97;10210963;29;20046;-74
2024/01/17 05:42:03;;;;;;;5.10;3.35;;;;;;;1.98;100.00;100965.28;10211696;29;20064;-76
2024/01/17 05:47:05;;;;;;;4.70;3.13;;;;;;;2.04;100.00;100924.75;10210734;29;20449;-76
2024/01/17 05:52:05;;;;;;;5.05;3.08;;;;;;;2.34;100.00;100963.84;10211171;29;20126;-76
2024/01/17 05:57:06;;;;;;;5.45;3.00;;;;;;;2.52;100.00;100982.78;10210466;29;20550;-76
2024/01/17 06:02:07;;;;;;;6.00;3.20;;;;;;;2.60;100.00;100990.97;10211603;29;20036;-77
2024/01/17 06:07:08;;;;;;;4.85;3.40;;;;;;;2.58;100.00;100987.63;10211340;29;20491;-78
2024/01/17 06:12:10;;;;;;;5.15;3.00;;;;;;;2.56;99.78;101004.41;10213930;29;20134;-77
2024/01/17 06:17:10;;;;;;;5.85;3.35;;;;;;;2.49;99.69;101040.69;10217159;29;20051;-76
2024/01/17 06:22:12;;;;;;;10.57;4.22;;;;;;;2.51;98.93;101054.50;10217274;29;20046;-77
2024/01/17 06:27:14;;;;;;;6.18;3.58;;;;;;;2.65;98.72;101062.34;10217441;29;20152;-76
2024/01/17 06:32:15;;;;;;;6.10;4.10;;;;;;;2.72;98.51;101068.91;10217022;29;20043;-77
2024/01/17 06:37:15;;;;;;;8.27;4.22;;;;;;;2.80;97.79;101065.75;10216521;29;20562;-76
2024/01/17 06:42:16;;;;;;;14.55;7.90;;;;;;;2.86;97.60;101069.75;10216658;29;20066;-74
2024/01/17 06:47:17;;;;;;;10.68;6.28;;;;;;;2.91;97.04;101065.06;10216169;29;20163;-76
2024/01/17 06:52:18;;;;;;;13.93;6.80;;;;;;;2.81;96.31;101062.19;10216413;29;20047;-77
2024/01/17 06:57:19;;;;;;;10.18;5.97;;;;;;;2.94;95.97;101073.56;10215781;29;20051;-77
2024/01/17 07:02:20;;;;;;;10.52;6.50;;;;;;;3.08;95.27;101084.94;10216177;29;20408;-76
2024/01/17 07:07:20;;;;;;;12.02;6.07;;;;;;;3.10;94.86;101026.13;10216375;29;20515;-77
2024/01/17 07:12:21;;;;;;;8.05;5.32;;;;;;;3.31;93.32;101075.53;10215079;29;20047;-77
2024/01/17 07:17:22;;;;;;;8.73;5.55;;;;;;;3.24;93.46;101087.41;10214967;29;20048;-76
2024/01/17 07:22:22;;;;;;;8.77;5.82;;;;;;;3.00;93.58;101027.72;10214716;29;20047;-77
2024/01/17 07:27:23;;;;;;;8.18;5.10;;;;;;;3.12;92.72;101028.66;10215578;29;20040;-78
2024/01/17 07:32:24;;;;;;;8.73;5.70;;;;;;;3.43;92.03;101079.94;10214820;29;20047;-78
2024/01/17 07:37:25;;;;;;;11.52;5.80;;;;;;;3.53;91.69;101078.41;10214621;29;20044;-77
2024/01/17 07:42:25;;;;;;;9.15;5.75;;;;;;;3.79;91.35;101088.88;10213862;29;20055;-76
2024/01/17 07:47:26;;;;;;;8.10;5.53;;;;;;;4.15;90.14;101090.72;10214995;29;20079;-77
2024/01/17 07:52:27;;;;;;;13.77;6.03;;;;;;;4.43;88.21;101088.75;10213546;29;20052;-79
2024/01/17 07:57:28;;;;;;;8.57;5.38;;;;;;;4.55;88.69;101086.09;10213417;29;20047;-78
2024/01/17 08:02:28;;;;;;;8.60;6.03;;;;;;;4.73;87.21;101093.63;10213241;29;20054;-77
2024/01/17 08:07:29;;;;;;;8.25;5.65;;;;;;;4.43;86.41;101055.44;10213767;29;20051;-78
2024/01/17 08:12:30;;;;;;;8.52;5.95;;;;;;;4.79;86.85;101072.94;10212798;29;20385;-77
2024/01/17 08:17:31;;;;;;;9.90;6.32;;;;;;;4.90;84.87;101072.13;10212653;29;20500;-78
2024/01/17 08:22:32;;;;;;;12.77;7.70;;;;;;;4.93;83.95;101113.22;10213154;29;20047;-79
2024/01/17 08:27:33;;;;;;;13.80;5.88;;;;;;;4.66;84.23;101082.69;10213081;29;20047;-77
2024/01/17 08:32:33;;;;;;;14.77;6.43;;;;;;;4.72;83.18;101079.59;10212832;29;20500;-79
2024/01/17 08:37:35;;;;;;;8.82;5.13;;;;;;;4.77;82.90;101101.16;10211948;29;20044;-79
2024/01/17 08:42:35;;;;;;;8.93;4.97;;;;;;;5.15;82.35;101110.69;10212269;29;20063;-77
2024/01/17 08:47:36;;;;;;;9.10;5.90;;;;;;;5.16;81.64;101093.91;10211794;29;20047;-79
2024/01/17 08:52:37;;;;;;;9.77;5.85;;;;;;;5.01;81.06;101097.69;10212016;29;20075;-80
2024/01/17 08:57:38;;;;;;;7.70;5.10;;;;;;;5.02;81.37;101094.94;10211647;29;20047;-79
2024/01/17 09:02:39;;;;;;;9.05;5.68;;;;;;;4.64;80.99;101044.28;10211697;29;20130;-80
2024/01/17 09:07:43;;;;;;;9.95;5.82;;;;;;;4.92;80.54;101088.69;10211958;29;20078;-80
2024/01/17 09:12:44;;;;;;;9.75;6.30;;;;;;;4.95;79.83;101072.66;10211896;29;20054;-79
2024/01/17 09:17:45;;;;;;;10.50;5.55;;;;;;;4.95;79.42;101062.13;10211864;29;20519;-79
2024/01/17 09:22:46;;;;;;;9.27;6.05;;;;;;;4.78;79.70;101015.97;10211095;29;20043;-79
2024/01/17 09:27:46;;;;;;;11.18;5.90;;;;;;;5.12;79.15;101068.78;10211224;29;20046;-79
2024/01/17 09:32:47;;;;;;;8.32;5.80;;;;;;;5.34;79.94;101062.72;10211748;29;20043;-76
2024/01/17 09:37:48;;;;;;;10.48;5.65;;;;;;;5.51;78.57;101056.16;10212032;29;20044;-79
2024/01/17 09:42:49;;;;;;;11.45;5.80;;;;;;;5.15;78.06;101015.03;10210852;29;20460;-79
2024/01/17 09:47:55;;;;;;;10.15;6.05;;;;;;;5.48;78.75;101043.22;10217217;29;20050;-79
2024/01/17 09:52:56;;;;;;;8.73;5.63;;;;;;;5.43;78.25;101067.28;10218809;29;20047;-80
2024/01/17 09:57:59;;;;;;;9.07;5.60;;;;;;;4.94;78.94;101026.22;10218739;29;20046;-79
2024/01/17 10:03:02;;;;;;;9.15;5.03;;;;;;;4.85;78.20;101023.44;10217591;29;20476;-80
2024/01/17 10:08:03;;;;;;;9.70;5.63;;;;;;;5.00;78.18;101067.91;10217601;29;20126;-80
2024/01/17 10:13:04;;;;;;;10.55;5.75;;;;;;;5.04;78.40;101084.28;10218033;29;20444;-79
2024/01/17 10:18:05;;;;;;;14.30;5.55;;;;;;;4.98;78.22;101056.63;10217702;29;20043;-79
2024/01/17 10:23:07;;;;;;;9.13;5.22;;;;;;;5.35;77.43;101068.81;10217758;29;20122;-79
2024/01/17 10:28:08;;;;;;;10.05;5.65;;;;;;;5.33;77.31;101068.13;10217463;29;20040;-79
2024/01/17 10:33:09;;;;;;;8.13;5.28;;;;;;;5.21;77.66;101075.16;10216712;29;20138;-79
2024/01/17 10:38:10;;;;;;;8.73;5.47;;;;;;;4.94;77.64;101033.28;10217034;29;20044;-78
2024/01/17 10:43:13;;;;;;;10.10;5.82;;;;;;;5.17;77.80;101076.31;10217213;29;20066;-78
2024/01/17 10:48:15;;;;;;;8.35;5.25;;;;;;;5.03;78.27;101057.13;10216098;29;20135;-79
2024/01/17 10:53:18;;;;;;;8.95;5.28;;;;;;;4.73;77.64;101019.94;10216477;29;20086;-80
2024/01/17 10:58:21;;;;;;;8.55;5.63;;;;;;;5.02;77.68;101063.31;10215046;29;20052;-80
2024/01/17 11:03:28;;;;;;;7.80;5.45;;;;;;;4.92;77.84;101078.16;10215441;29;20050;-78
2024/01/17 11:08:30;;;;;;;8.93;5.10;;;;;;;5.25;77.43;101079.22;10216121;29;20052;-80
2024/01/17 11:13:32;;;;;;;7.65;5.03;;;;;;;5.29;76.23;101080.66;10215036;29;20138;-81
2024/01/17 11:18:36;;;;;;;8.45;5.03;;;;;;;5.25;75.77;101092.38;10214894;29;20043;-80
2024/01/17 11:23:46;;;;;;;9.97;5.70;;;;;;;5.20;75.04;101108.53;10215584;29;20048;-80
2024/01/17 11:29:09;;;;;;;8.88;4.75;;;;;;;4.84;73.68;101074.41;10214468;29;20047;-80
2024/01/17 11:34:11;;;;;;;7.43;4.70;;;;;;;4.85;75.99;101103.25;10214361;29;20054;-79
2024/01/17 11:39:15;;;;;;;8.85;5.20;;;;;;;4.86;75.34;101104.94;10214076;29;20098;-78
2024/01/17 11:44:17;;;;;;;8.13;5.00;;;;;;;4.84;75.62;101088.41;10214945;29;20060;-78
2024/01/17 11:49:40;;;;;;;8.05;4.22;;;;;;;4.95;73.13;101120.03;10214279;29;20048;-79
2024/01/17 11:54:44;;;;;;;9.30;4.43;;;;;;;4.85;74.49;101137.47;10214397;29;20388;-79
2024/01/17 12:00:02;;;;;;;7.43;4.23;;;;;;;4.76;73.88;101135.50;10213937;29;20504;-79
2024/01/17 12:05:07;;;;;;;8.57;4.07;;;;;;;4.69;75.05;101145.63;10213140;29;20311;-79
2024/01/17 12:10:10;;;;;;;8.98;3.83;;;;;;;4.68;75.02;101143.94;10213510;29;20047;-80
2024/01/17 12:15:11;;;;;;;7.30;3.92;;;;;;;4.60;75.03;101141.03;10213530;29;20130;-79
2024/01/17 12:20:12;;;;;;;7.97;4.53;;;;;;;4.62;74.82;101144.41;10214782;29;20046;-77
2024/01/17 12:25:13;;;;;;;8.40;4.60;;;;;;;4.59;75.20;101149.88;10247980;28;20062;-82
2024/01/17 12:30:14;;;;;;;8.10;4.30;;;;;;;4.47;74.94;101145.50;10252262;29;20035;-80
2024/01/17 12:35:15;;;;;;;7.32;4.68;;;;;;;4.27;74.96;101150.34;10252955;29;20039;-80
2024/01/17 12:40:16;;;;;;;118.85;60.63;;;;;;;4.20;75.67;101157.00;10251430;28;20077;-80
2024/01/17 12:45:17;;;;;;;41.30;24.13;;;;;;;4.10;75.58;101154.19;10251592;28;20062;-80
2024/01/17 12:50:18;;;;;;;37.28;22.25;;;;;;;3.79;76.41;101128.31;10246109;28;20054;-78
2024/01/17 12:55:22;;;;;;;26.17;13.05;;;;;;;3.90;76.85;101167.84;10246331;28;20519;-79
2024/01/17 13:00:27;;;;;;;15.55;8.55;;;;;;;3.82;77.14;101172.78;10238486;28;20071;-80
2024/01/17 13:05:28;;;;;;;14.95;7.40;;;;;;;3.41;77.34;101123.84;10243279;29;20047;-78
2024/01/17 13:10:33;;;;;;;18.77;5.65;;;;;;;3.69;77.42;101178.03;10237403;29;20036;-78
2024/01/17 13:15:35;;;;;;;13.80;5.10;;;;;;;3.61;77.86;101168.03;10225388;28;20419;-77
2024/01/17 13:20:38;;;;;;;19.98;5.63;;;;;;;3.47;78.12;101176.00;10232961;28;20050;-79
2024/01/17 13:25:40;;;;;;;9.40;5.20;;;;;;;3.31;78.46;101162.19;10253732;28;20102;-78
2024/01/17 13:30:41;;;;;;;19.58;5.75;;;;;;;3.08;78.69;101177.66;10259429;29;20042;-77
2024/01/17 13:35:46;;;;;;;12.00;5.90;;;;;;;2.57;79.23;101158.19;10258560;29;20135;-78
2024/01/17 13:40:46;;;;;;;18.02;6.38;;;;;;;2.71;79.56;101194.91;10258703;29;20496;-79
2024/01/17 13:45:48;;;;;;;18.38;6.55;;;;;;;2.27;80.08;101160.03;10258187;29;20070;-79
2024/01/17 13:50:48;;;;;;;16.35;7.13;;;;;;;2.14;80.93;101176.59;10256325;29;20426;-79
2024/01/17 13:55:49;;;;;;;21.00;8.75;;;;;;;1.91;81.82;101173.56;10258047;28;20126;-80
2024/01/17 14:00:57;;;;;;;15.60;6.80;;;;;;;1.88;82.82;101192.09;10257556;28;20508;-80
2024/01/17 14:05:58;;;;;;;20.52;7.80;;;;;;;1.81;84.02;101202.09;10257817;28;20057;-78
2024/01/17 14:10:58;;;;;;;15.65;6.80;;;;;;;1.38;84.86;101151.41;10252306;29;20077;-78
2024/01/17 14:15:59;;;;;;;14.43;6.72;;;;;;;1.30;86.01;101153.63;10253365;29;20047;-79
2024/01/17 14:21:00;;;;;;;18.27;7.90;;;;;;;1.06;86.72;101146.25;10257449;28;20500;-79
2024/01/17 14:26:01;;;;;;;12.27;5.97;;;;;;;1.18;87.53;101197.03;10256281;28;20047;-79
2024/01/17 14:31:01;;;;;;;21.25;11.48;;;;;;;1.01;88.36;101184.91;10255219;28;20042;-79
2024/01/17 14:36:02;;;;;;;23.42;12.50;;;;;;;0.87;89.55;101171.78;10256004;28;20051;-79
2024/01/17 14:41:03;;;;;;;19.13;10.05;;;;;;;0.82;89.86;101192.94;10256832;28;20497;-80
2024/01/17 14:46:04;;;;;;;16.95;9.20;;;;;;;0.40;90.99;101136.84;10256110;28;20508;-78
2024/01/17 14:51:05;;;;;;;25.77;8.45;;;;;;;0.62;91.56;101195.78;10256208;28;20039;-78
2024/01/17 14:56:06;;;;;;;14.25;7.60;;;;;;;0.49;91.81;101193.00;10256040;28;20039;-78
2024/01/17 15:01:08;;;;;;;15.88;7.35;;;;;;;0.17;92.81;101148.50;10256109;29;20047;-78
2024/01/17 15:06:20;;;;;;;12.50;7.70;;;;;;;0.43;94.98;101191.56;10245505;28;20082;-85
2024/01/17 15:11:21;;;;;;;11.25;7.03;;;;;;;0.42;93.72;101208.19;10243808;28;20496;-82
2024/01/17 15:16:41;;;;;;;12.35;7.13;;;;;;;0.33;96.55;101208.66;10246044;29;20039;-89
2024/01/17 15:21:46;;;;;;;14.20;6.57;;;;;;;0.14;95.14;101208.75;10256707;28;20050;-80
2024/01/17 15:26:47;;;;;;;13.82;7.20;;;;;;;-0.29;95.22;101190.09;10254111;28;20043;-75
2024/01/17 15:31:47;;;;;;;13.43;7.65;;;;;;;-0.16;95.74;101220.78;10254525;28;20043;-77
2024/01/17 15:36:49;;;;;;;15.13;8.45;;;;;;;-0.46;95.58;101162.22;10254820;29;20047;-81
2024/01/17 15:41:50;;;;;;;13.88;8.68;;;;;;;-0.66;96.61;101157.13;10254534;28;20142;-84
2024/01/17 15:47:10;;;;;;;10.38;6.70;;;;;;;-0.78;96.18;101139.47;10253786;29;20046;-84
2024/01/17 15:52:10;;;;;;;32.63;13.73;;;;;;;-0.39;96.42;101196.72;10253479;28;20049;-83
2024/01/17 15:57:11;;;;;;;14.70;9.73;;;;;;;-0.54;96.79;101190.47;10252587;28;20129;-79
2024/01/17 16:02:12;;;;;;;14.60;9.00;;;;;;;-0.57;97.61;101195.84;10250624;29;20086;-83
2024/01/17 16:07:13;;;;;;;18.02;10.52;;;;;;;-0.57;98.01;101208.91;10252213;29;20075;-82
2024/01/17 16:12:15;;;;;;;18.13;9.77;;;;;;;-0.86;98.49;101163.34;10253516;28;20071;-81
2024/01/17 16:17:16;;;;;;;16.70;10.30;;;;;;;-0.80;98.73;101188.31;10248398;29;20495;-81
2024/01/17 16:22:17;;;;;;;43.03;21.70;;;;;;;-0.79;98.70;101203.03;10236190;29;20067;-82
2024/01/17 16:27:17;;;;;;;19.25;12.18;;;;;;;-0.98;98.49;101219.56;10248349;29;20133;-81
2024/01/17 16:32:18;;;;;;;24.13;12.50;;;;;;;-1.08;99.39;101233.94;10233358;28;20138;-81
2024/01/17 16:37:19;;;;;;;23.20;13.27;;;;;;;-1.28;98.93;101195.78;10234514;28;20098;-80
2024/01/17 16:42:20;;;;;;;27.15;12.73;;;;;;;-1.32;98.99;101180.34;10238220;29;20051;-80
2024/01/17 16:47:21;;;;;;;27.98;14.23;;;;;;;-1.50;99.09;101146.38;10236381;28;20399;-80
2024/01/17 16:52:22;;;;;;;16.67;10.88;;;;;;;-1.19;99.06;101212.75;10227686;29;20511;-79
2024/01/17 16:57:23;;;;;;;16.85;11.15;;;;;;;-1.45;98.48;101193.94;10228637;28;20043;-80
2024/01/17 17:02:24;;;;;;;21.70;11.77;;;;;;;-1.41;99.54;101203.31;10231945;29;20042;-79
2024/01/17 17:07:24;;;;;;;16.85;11.13;;;;;;;-1.78;98.89;101159.00;10234797;28;20047;-80
2024/01/17 17:12:25;;;;;;;18.85;12.05;;;;;;;-2.22;98.81;101107.97;10234872;28;20395;-77
2024/01/17 17:17:26;;;;;;;25.42;14.43;;;;;;;-1.50;99.48;101208.91;10235818;29;20051;-80
2024/01/17 17:22:27;;;;;;;23.98;12.35;;;;;;;-1.48;98.98;101191.47;10228123;29;20044;-80
2024/01/17 17:27:28;;;;;;;26.05;14.80;;;;;;;-1.46;99.52;101191.41;10235165;29;20039;-77
2024/01/17 17:32:28;;;;;;;57.10;31.50;;;;;;;-2.08;100.00;101128.19;10231405;29;20081;-79
2024/01/17 17:37:29;;;;;;;157.90;86.38;;;;;;;-1.65;99.74;101241.72;10236169;28;20054;-79
2024/01/17 17:42:30;;;;;;;38.58;22.63;;;;;;;-1.68;100.00;101251.44;10239477;29;20058;-78
2024/01/17 17:47:33;;;;;;;47.67;26.13;;;;;;;-2.01;100.00;101192.09;10239345;28;20139;-77
2024/01/17 17:52:33;;;;;;;28.38;17.83;;;;;;;-1.79;100.00;101238.91;10249503;28;20113;-76
2024/01/17 17:57:36;;;;;;;62.60;34.00;;;;;;;-1.91;100.00;101242.88;10249276;28;20065;-75
2024/01/17 18:02:37;;;;;;;28.38;16.63;;;;;;;-2.01;100.00;101253.75;10223471;28;20089;-76
2024/01/17 18:07:38;;;;;;;50.38;28.30;;;;;;;-2.05;100.00;101263.44;10214792;29;20061;-75
2024/01/17 18:12:39;;;;;;;27.33;16.27;;;;;;;-2.16;100.00;101250.88;10218526;29;20062;-76
2024/01/17 18:17:40;;;;;;;27.77;15.65;;;;;;;-2.24;100.00;101247.75;10217882;29;20043;-76
2024/01/17 18:22:40;;;;;;;22.25;12.30;;;;;;;-2.70;100.00;101199.34;10249342;29;20118;-75
2024/01/17 18:27:41;;;;;;;22.48;12.35;;;;;;;-2.58;100.00;101222.25;10257150;28;20043;-75
2024/01/17 18:32:42;;;;;;;21.13;11.80;;;;;;;-2.39;100.00;101290.03;10256691;28;20054;-75
2024/01/17 18:37:43;;;;;;;22.15;13.90;;;;;;;-2.39;100.00;101295.25;10256897;28;20543;-76
2024/01/17 18:42:44;;;;;;;23.17;11.48;;;;;;;-2.47;100.00;101295.53;10256040;28;20531;-76
2024/01/17 18:47:46;;;;;;;21.13;11.45;;;;;;;-2.57;100.00;101292.47;10256193;28;20051;-76
2024/01/17 18:52:46;;;;;;;20.70;11.07;;;;;;;-2.61;100.00;101282.22;10255911;28;20043;-75
2024/01/17 18:57:47;;;;;;;18.38;10.57;;;;;;;-2.56;100.00;101303.69;10255575;28;20055;-76
2024/01/17 19:02:48;;;;;;;20.98;10.50;;;;;;;-2.57;100.00;101296.81;10255117;28;20126;-78
2024/01/17 19:07:48;;;;;;;23.40;11.43;;;;;;;-2.68;100.00;101280.78;10254744;28;20043;-77
2024/01/17 19:12:49;;;;;;;19.73;11.35;;;;;;;-2.95;100.00;101236.75;10254892;28;20142;-77
2024/01/17 19:17:50;;;;;;;23.95;12.18;;;;;;;-2.76;100.00;101297.50;10254696;28;20047;-77
2024/01/17 19:22:51;;;;;;;22.80;11.70;;;;;;;-2.92;99.95;101293.81;10254137;28;20129;-78
2024/01/17 19:27:53;;;;;;;29.73;10.90;;;;;;;-2.91;100.00;101302.47;10254734;28;20518;-78
2024/01/17 19:32:53;;;;;;;21.75;11.32;;;;;;;-3.36;99.75;101252.16;10254704;28;20042;-77
2024/01/17 19:38:00;;;;;;;23.70;11.02;;;;;;;-3.28;99.75;101276.09;10254910;28;20043;-76
2024/01/17 19:43:01;;;;;;;29.90;13.23;;;;;;;-3.01;100.00;101304.56;10254532;28;20051;-76
2024/01/17 19:48:04;;;;;;;34.53;14.30;;;;;;;-2.98;100.00;101314.84;10254210;28;20528;-78
2024/01/17 19:53:05;;;;;;;28.95;13.20;;;;;;;-3.04;100.00;101308.13;10253440;28;20043;-77
2024/01/17 19:58:07;;;;;;;33.20;14.75;;;;;;;-3.10;99.50;101310.97;10253649;28;20043;-78
2024/01/17 20:03:08;;;;;;;38.30;14.77;;;;;;;-3.21;99.94;101300.09;10253294;28;20404;-78
2024/01/17 20:08:09;;;;;;;26.92;14.20;;;;;;;-3.21;99.58;101326.94;10252825;28;20113;-78
2024/01/17 20:13:10;;;;;;;34.15;13.73;;;;;;;-3.29;99.37;101331.59;10252428;28;20039;-79
2024/01/17 20:23:30;;;;;;;22.42;12.38;;;;;;;-3.36;100.00;101316.25;10213313;29;20550;-79
2024/01/17 20:28:31;;;;;;;31.77;12.80;;;;;;;-3.49;99.78;101314.09;10211557;29;20039;-75
2024/01/17 20:33:50;;;;;;;32.30;11.20;;;;;;;-3.57;99.55;101323.91;10213014;29;20411;-77
2024/01/17 20:38:52;;;;;;;21.75;10.77;;;;;;;-3.66;99.23;101326.81;10213057;29;20048;-77
2024/01/17 20:43:52;;;;;;;22.80;10.68;;;;;;;-3.92;99.13;101293.97;10212935;29;20094;-76
2024/01/17 20:48:53;;;;;;;16.42;10.13;;;;;;;-3.82;99.25;101320.47;10212519;29;20063;-76
2024/01/17 20:53:54;;;;;;;54.05;11.20;;;;;;;-3.86;99.52;101331.84;10211696;29;20039;-77
2024/01/17 20:58:57;;;;;;;26.20;11.32;;;;;;;-3.84;99.43;101343.88;10213047;29;20046;-77
2024/01/17 21:03:58;;;;;;;24.55;11.23;;;;;;;-3.87;99.19;101338.78;10238937;29;20051;-77
2024/01/17 21:08:59;;;;;;;18.23;10.10;;;;;;;-3.91;98.89;101348.44;10250897;28;20103;-77
2024/01/17 21:13:59;;;;;;;22.67;10.50;;;;;;;-4.24;99.24;101301.09;10251847;28;20043;-77
2024/01/17 21:19:01;;;;;;;22.45;10.18;;;;;;;-4.27;98.83;101295.16;10251674;28;20514;-76
2024/01/17 21:24:02;;;;;;;24.30;12.73;;;;;;;-4.14;98.06;101346.56;10251424;28;20039;-78
2024/01/17 21:29:06;;;;;;;24.83;12.38;;;;;;;-4.15;98.39;101344.06;10251477;28;20126;-78
2024/01/17 21:34:07;;;;;;;23.10;12.10;;;;;;;-4.07;98.69;101348.97;10251223;28;20043;-77
2024/01/17 21:39:26;;;;;;;31.05;12.52;;;;;;;-4.02;98.66;101354.88;10250784;28;20049;-76
2024/01/17 21:44:29;;;;;;;28.05;13.25;;;;;;;-4.17;98.29;101351.88;10258675;28;20085;-77
2024/01/17 21:49:48;;;;;;;26.98;13.60;;;;;;;-4.25;97.44;101355.59;10258949;28;20047;-77
2024/01/17 21:54:48;;;;;;;29.00;13.88;;;;;;;-4.40;98.10;101354.34;10257295;29;20054;-76
2024/01/17 21:59:50;;;;;;;27.75;12.52;;;;;;;-4.61;98.07;101297.09;10259148;28;20049;-77
2024/01/17 22:04:50;;;;;;;33.63;13.05;;;;;;;-4.57;97.93;101339.31;10258134;28;20039;-77
2024/01/17 22:09:51;;;;;;;18.00;10.80;;;;;;;-4.66;97.65;101350.81;10257661;28;20073;-77
2024/01/17 22:14:52;;;;;;;21.90;10.98;;;;;;;-4.60;98.40;101354.97;10256817;28;20047;-77
2024/01/17 22:19:52;;;;;;;20.10;9.25;;;;;;;-4.53;98.45;101350.44;10257573;28;20039;-77
2024/01/17 22:24:53;;;;;;;19.85;10.27;;;;;;;-4.55;98.35;101354.81;10257002;28;20039;-77
2024/01/17 22:29:54;;;;;;;26.48;12.35;;;;;;;-4.50;97.96;101355.53;10257036;28;20075;-78
2024/01/17 22:34:55;;;;;;;22.42;11.90;;;;;;;-4.52;98.18;101365.09;10257047;28;20071;-77
2024/01/17 22:40:14;;;;;;;28.85;13.40;;;;;;;-4.60;97.66;101362.75;10257297;28;20046;-78
2024/01/17 22:45:14;;;;;;;57.67;23.92;;;;;;;-4.75;97.08;101360.63;10256134;28;20130;-77
2024/01/17 22:50:15;;;;;;;57.75;26.27;;;;;;;-4.86;97.23;101354.00;10256857;28;20039;-78
2024/01/17 22:55:16;;;;;;;42.47;19.77;;;;;;;-4.82;97.71;101365.09;10255096;28;20046;-78
2024/01/17 23:00:20;;;;;;;35.78;16.38;;;;;;;-4.80;97.62;101363.34;10255792;28;20515;-78